Time;durP1;ratioP1;P1;durP2;ratioP2;P2;SDS_P1;SDS_P2;PMS_P1;PMS_P2;Temp;Humidity;BMP_temperature;BMP_pressure;BME280_temperature;BME280_humidity;BME280_pressure;Samples;Min_cycle;Max_cycle;Signal;HPM_P1;HPM_P2
2022/12/24 00:01:59;;;;;;;8.50;5.85;;;;;;;16.71;55.12;96825.03;5012725;28;20038;-32
2022/12/24 00:04:24;;;;;;;9.07;5.72;;;;;;;16.72;55.14;96823.81;5012339;28;20032;-32
2022/12/24 00:06:50;;;;;;;8.27;5.68;;;;;;;16.69;55.03;96819.25;5013975;28;20026;-32
2022/12/24 00:09:15;;;;;;;8.27;5.50;;;;;;;16.70;54.89;96825.50;5014292;28;20026;-32
2022/12/24 00:11:41;;;;;;;10.55;5.22;;;;;;;16.72;54.73;96823.81;5013948;28;20028;-32
2022/12/24 00:14:06;;;;;;;7.13;5.28;;;;;;;16.69;54.96;96824.72;5014239;28;20030;-32
2022/12/24 00:16:32;;;;;;;9.43;5.70;;;;;;;16.68;54.81;96828.72;5013623;28;20476;-32
2022/12/24 00:18:57;;;;;;;7.85;5.32;;;;;;;16.69;54.89;96826.75;5013773;28;20428;-32
2022/12/24 00:21:23;;;;;;;6.72;4.40;;;;;;;16.70;54.77;96837.22;5013964;28;20037;-32
2022/12/24 00:23:48;;;;;;;8.88;5.22;;;;;;;16.67;54.89;96835.41;5008592;28;20030;-32
2022/12/24 00:26:14;;;;;;;9.27;4.93;;;;;;;16.62;54.97;96830.53;5006632;28;20018;-32
2022/12/24 00:28:40;;;;;;;7.80;4.88;;;;;;;16.69;54.82;96818.53;5013879;28;20030;-32
2022/12/24 00:31:15;;;;;;;9.00;4.97;;;;;;;16.69;54.83;96815.78;5013809;28;20014;-32
2022/12/24 00:33:40;;;;;;;7.90;4.43;;;;;;;16.68;54.67;96812.28;5008843;28;20030;-32
2022/12/24 00:36:08;;;;;;;8.70;5.30;;;;;;;16.68;55.00;96812.28;5009099;28;20048;-32
2022/12/24 00:38:33;;;;;;;8.80;5.30;;;;;;;16.63;54.92;96810.13;5013888;28;20450;-32
2022/12/24 00:41:04;;;;;;;8.88;4.93;;;;;;;16.64;54.77;96811.66;5013443;28;20066;-32
2022/12/24 00:43:30;;;;;;;7.63;4.70;;;;;;;16.68;54.77;96817.00;5013936;28;20040;-32
2022/12/24 00:45:56;;;;;;;7.05;4.43;;;;;;;16.64;54.77;96813.63;5013818;28;20093;-32
2022/12/24 00:48:23;;;;;;;7.47;4.55;;;;;;;16.67;54.80;96805.28;5013654;28;20022;-32
2022/12/24 00:50:49;;;;;;;7.65;4.60;;;;;;;16.65;54.79;96824.16;5013593;28;20024;-32
2022/12/24 00:53:21;;;;;;;8.73;4.63;;;;;;;16.63;54.70;96814.84;5013531;28;20022;-32
2022/12/24 00:55:46;;;;;;;6.53;4.63;;;;;;;16.64;54.96;96817.13;5013553;28;20024;-32
2022/12/24 00:58:12;;;;;;;5.18;4.05;;;;;;;16.63;54.92;96823.06;4996266;28;20026;-32
2022/12/24 01:00:37;;;;;;;6.65;4.07;;;;;;;16.56;54.95;96815.91;5013545;28;20030;-32
2022/12/24 01:03:03;;;;;;;8.40;4.00;;;;;;;16.63;54.88;96821.09;5013527;28;20030;-32
2022/12/24 01:05:28;;;;;;;8.23;4.60;;;;;;;16.63;55.01;96821.09;5013472;28;20486;-32
2022/12/24 01:07:53;;;;;;;6.90;4.10;;;;;;;16.58;54.88;96823.63;5018266;28;20363;-32
2022/12/24 01:10:19;;;;;;;6.95;4.47;;;;;;;16.60;54.88;96826.69;5019399;28;20060;-32
2022/12/24 01:12:46;;;;;;;6.20;3.83;;;;;;;16.64;54.79;96825.34;5013464;28;20125;-32
2022/12/24 01:15:13;;;;;;;8.02;4.57;;;;;;;16.64;54.51;96822.63;5013116;28;20026;-32
2022/12/24 01:17:39;;;;;;;7.13;4.15;;;;;;;16.56;55.09;96824.13;5012352;28;20030;-32
2022/12/24 01:20:08;;;;;;;7.55;4.60;;;;;;;16.48;55.07;96818.16;5013587;28;20426;-32
2022/12/24 01:22:34;;;;;;;6.00;4.25;;;;;;;16.54;55.03;96815.59;5013196;28;20034;-32
2022/12/24 01:24:59;;;;;;;8.43;4.22;;;;;;;16.56;55.20;96804.94;5013092;28;20429;-32
2022/12/24 01:27:24;;;;;;;7.85;4.75;;;;;;;16.59;54.82;96809.50;5014279;28;20030;-31
2022/12/24 01:29:50;;;;;;;7.43;4.47;;;;;;;16.58;54.98;96810.72;4999412;28;20394;-31
2022/12/24 01:32:15;;;;;;;8.38;4.82;;;;;;;16.56;55.16;96820.63;5017262;28;20014;-32
2022/12/24 01:34:41;;;;;;;9.98;4.97;;;;;;;16.61;54.93;96820.75;5016625;28;20395;-32
2022/12/24 01:37:07;;;;;;;8.13;4.35;;;;;;;16.56;55.02;96809.66;4999846;28;20386;-32
2022/12/24 01:39:32;;;;;;;7.53;4.75;;;;;;;16.53;55.14;96800.38;5017255;28;20030;-32
2022/12/24 01:44:47;;;;;;;7.40;4.95;;;;;;;16.53;54.91;96800.38;5016884;28;20024;-32
2022/12/24 01:47:30;;;;;;;8.60;4.68;;;;;;;16.48;55.27;96809.19;5017188;28;20109;-32
2022/12/24 01:50:00;;;;;;;;;;;;;;;16.50;54.92;96810.25;5017397;28;20530;-32
2022/12/24 01:52:33;;;;;;;7.78;4.30;;;;;;;16.57;54.79;96800.97;5016979;28;19913;-32
2022/12/24 01:55:01;;;;;;;4.97;3.95;;;;;;;16.50;54.87;96793.06;5016901;28;20024;-32
2022/12/24 01:57:33;;;;;;;6.88;4.50;;;;;;;16.53;54.78;96794.91;5016859;28;20530;-32
2022/12/24 02:00:07;;;;;;;7.43;4.40;;;;;;;16.47;54.76;96797.47;5016755;28;20034;-32
2022/12/24 02:02:33;;;;;;;6.10;4.38;;;;;;;16.49;54.72;96778.63;5014988;28;20076;-32
2022/12/24 02:05:09;;;;;;;6.35;3.92;;;;;;;16.48;54.83;96770.88;5016511;28;20030;-32
2022/12/24 02:07:35;;;;;;;7.13;4.15;;;;;;;16.46;54.96;96754.13;5016396;28;20470;-32
2022/12/24 02:10:01;;;;;;;5.13;4.15;;;;;;;16.52;54.71;96750.34;5016444;28;20118;-32
2022/12/24 02:12:31;;;;;;;7.65;4.22;;;;;;;16.51;55.04;96751.56;5016719;28;20014;-32
2022/12/24 02:14:58;;;;;;;7.90;4.88;;;;;;;16.46;55.00;96762.34;5016441;28;20036;-32
2022/12/24 02:17:46;;;;;;;8.70;4.32;;;;;;;16.46;55.08;96774.06;4998816;28;20040;-32
2022/12/24 02:20:28;;;;;;;7.13;4.32;;;;;;;16.50;54.86;96755.50;5016297;28;20022;-32
2022/12/24 02:22:56;;;;;;;6.55;4.00;;;;;;;16.51;54.81;96748.06;5016403;28;20022;-32
2022/12/24 02:25:32;;;;;;;5.18;3.83;;;;;;;16.44;55.11;96746.38;5011422;28;20022;-32
2022/12/24 02:28:00;;;;;;;5.90;4.15;;;;;;;16.41;55.16;96750.03;5009010;28;20022;-32
2022/12/24 02:30:44;;;;;;;7.30;3.90;;;;;;;16.38;55.21;96739.25;5010225;28;20045;-32
2022/12/24 02:33:21;;;;;;;6.70;4.15;;;;;;;16.40;54.88;96747.75;5010731;28;20029;-32
2022/12/24 02:35:54;;;;;;;7.03;4.55;;;;;;;16.40;54.85;96753.22;5015883;28;20116;-32
2022/12/24 02:38:26;;;;;;;;;;;;;;;16.48;54.70;96759.91;5015804;28;20041;-32
2022/12/24 02:40:58;;;;;;;6.70;4.03;;;;;;;16.39;54.81;96760.69;5016092;28;19909;-32
2022/12/24 02:43:30;;;;;;;7.32;4.20;;;;;;;16.45;54.60;96760.81;4998352;28;20030;-32
2022/12/24 02:46:00;;;;;;;6.28;3.88;;;;;;;16.42;54.62;96761.75;5015920;28;20030;-32
2022/12/24 02:48:28;;;;;;;6.20;4.10;;;;;;;16.37;54.72;96762.34;5003463;28;20128;-32
2022/12/24 02:51:02;;;;;;;6.32;3.90;;;;;;;16.41;54.55;96766.47;4998091;28;20036;-32
2022/12/24 02:53:28;;;;;;;7.72;4.30;;;;;;;16.37;54.84;96776.03;5015759;28;20383;-31
2022/12/24 02:56:20;;;;;;;7.63;4.40;;;;;;;16.44;54.67;96781.97;5015513;28;20026;-31
2022/12/24 02:59:07;;;;;;;6.97;4.10;;;;;;;16.35;54.91;96776.50;4998092;28;20030;-31
2022/12/24 03:02:03;;;;;;;6.80;4.18;;;;;;;16.37;54.62;96789.72;5003888;28;20026;-31
2022/12/24 03:04:39;;;;;;;7.13;4.50;;;;;;;16.41;54.64;96779.41;5015732;28;20083;-31
2022/12/24 03:07:23;;;;;;;5.25;3.80;;;;;;;16.40;54.73;96780.59;5015578;28;20410;-31
2022/12/24 03:10:28;;;;;;;5.78;3.45;;;;;;;16.36;54.54;96766.31;5023221;28;20028;-31
2022/12/24 03:12:57;;;;;;;6.00;3.30;;;;;;;16.39;54.52;96779.09;4935842;29;20039;-31
2022/12/24 03:15:25;;;;;;;6.35;3.70;;;;;;;16.40;54.57;96786.09;4935662;29;20477;-31
2022/12/24 03:17:55;;;;;;;5.03;3.30;;;;;;;16.46;54.53;96786.97;4936083;29;20138;-31
2022/12/24 03:20:28;;;;;;;6.80;3.78;;;;;;;16.34;54.66;96785.16;4935787;29;20028;-31
2022/12/24 03:22:54;;;;;;;7.15;3.65;;;;;;;16.42;54.55;96786.38;4935934;29;20099;-31
2022/12/24 03:25:24;;;;;;;4.40;3.17;;;;;;;16.45;54.59;96782.72;4935506;29;20035;-31
2022/12/24 03:27:51;;;;;;;6.13;3.67;;;;;;;16.43;54.68;96782.44;4935456;29;20044;-31
2022/12/24 03:30:17;;;;;;;7.18;3.90;;;;;;;16.40;54.92;96775.13;4935588;29;20039;-31
2022/12/24 03:32:43;;;;;;;5.97;3.38;;;;;;;16.40;54.82;96778.63;4935570;29;20027;-31
2022/12/24 03:35:10;;;;;;;5.70;3.60;;;;;;;16.34;55.05;96779.69;4935226;29;20043;-31
2022/12/24 03:37:36;;;;;;;5.65;3.90;;;;;;;16.41;55.17;96793.09;4935835;29;20027;-31
2022/12/24 03:40:04;;;;;;;6.50;3.55;;;;;;;16.37;54.95;96792.47;4935565;29;20032;-31
2022/12/24 03:42:30;;;;;;;5.68;3.58;;;;;;;16.34;55.04;96793.38;4935438;29;20036;-31
2022/12/24 03:44:55;;;;;;;5.80;3.40;;;;;;;16.29;55.43;96789.28;4935375;29;20534;-31
2022/12/24 03:47:20;;;;;;;5.53;3.53;;;;;;;16.29;55.31;96791.25;4940613;28;20028;-31
2022/12/24 03:49:46;;;;;;;6.65;3.60;;;;;;;16.30;55.30;96792.78;5012373;28;20104;-31
2022/12/24 03:52:11;;;;;;;7.80;3.72;;;;;;;16.32;55.44;96795.81;5014811;28;20097;-31
2022/12/24 03:54:37;;;;;;;7.57;4.15;;;;;;;16.38;55.13;96793.97;5014474;28;20548;-31
2022/12/24 03:57:02;;;;;;;7.82;4.00;;;;;;;16.33;55.27;96791.84;5014270;28;20478;-31
2022/12/24 03:59:28;;;;;;;6.40;4.00;;;;;;;16.27;55.65;96782.72;5014718;28;20017;-31
2022/12/24 04:01:53;;;;;;;7.65;3.75;;;;;;;16.33;55.50;96787.13;5014247;28;20044;-31
2022/12/24 04:04:19;;;;;;;9.82;3.97;;;;;;;16.40;55.07;96784.09;5014334;28;20026;-31
2022/12/24 04:06:44;;;;;;;5.88;3.78;;;;;;;16.36;55.27;96788.97;5014517;28;20033;-31
2022/12/24 04:09:09;;;;;;;7.40;3.67;;;;;;;16.31;55.39;96788.81;5014193;28;20076;-31
2022/12/24 04:11:35;;;;;;;5.25;3.20;;;;;;;16.25;55.44;96796.88;5014092;28;20021;-31
2022/12/24 04:14:00;;;;;;;5.78;3.65;;;;;;;16.27;55.36;96793.69;5014312;28;20433;-31
2022/12/24 04:16:26;;;;;;;5.93;3.25;;;;;;;16.22;55.55;96799.75;5014057;28;20060;-31
2022/12/24 04:18:51;;;;;;;5.55;3.33;;;;;;;16.36;55.32;96797.16;5014306;28;20045;-31
2022/12/24 04:21:17;;;;;;;4.45;2.95;;;;;;;16.29;55.51;96791.25;5014250;28;20437;-31
2022/12/24 04:23:43;;;;;;;5.38;3.30;;;;;;;16.25;55.65;96796.09;5009749;28;20026;-31
2022/12/24 04:26:11;;;;;;;5.53;3.20;;;;;;;16.37;55.44;96784.25;5005573;28;20044;-31
2022/12/24 04:28:38;;;;;;;5.47;3.47;;;;;;;16.29;55.55;96799.47;5001220;28;20028;-31
2022/12/24 04:31:07;;;;;;;5.53;3.50;;;;;;;16.37;55.29;96808.88;5013978;28;20029;-31
2022/12/24 04:33:33;;;;;;;6.85;3.50;;;;;;;16.29;55.68;96810.41;5015510;28;20026;-31
2022/12/24 04:36:03;;;;;;;4.38;3.00;;;;;;;16.29;55.68;96811.16;5021311;28;20068;-31
2022/12/24 04:38:29;;;;;;;6.07;3.78;;;;;;;16.30;55.84;96817.41;5013627;28;20481;-31
2022/12/24 04:41:03;;;;;;;4.25;3.20;;;;;;;16.29;55.91;96824.84;5013462;28;20021;-31
2022/12/24 04:43:28;;;;;;;4.35;3.40;;;;;;;16.31;56.08;96822.44;5001637;28;20022;-31
2022/12/24 04:45:54;;;;;;;5.40;3.67;;;;;;;16.29;55.84;96832.31;5013793;28;20022;-31
2022/12/24 04:48:20;;;;;;;6.32;3.47;;;;;;;16.24;56.26;96827.41;5013560;28;20113;-31
2022/12/24 04:50:45;;;;;;;5.03;3.67;;;;;;;16.25;56.22;96824.22;5013600;28;20096;-31
2022/12/24 04:53:13;;;;;;;4.32;3.60;;;;;;;16.24;56.44;96828.19;4995964;28;20030;-31
2022/12/24 04:55:45;;;;;;;4.93;3.83;;;;;;;16.25;56.23;96826.97;5013731;28;20080;-31
2022/12/24 04:58:12;;;;;;;5.80;3.97;;;;;;;16.14;56.88;96819.19;5013853;28;20525;-31
2022/12/24 05:00:41;;;;;;;7.15;3.90;;;;;;;16.29;56.45;96816.63;4995735;28;20079;-32
2022/12/24 05:03:06;;;;;;;4.93;3.88;;;;;;;16.28;56.25;96825.31;4995577;28;20018;-32
2022/12/24 05:05:32;;;;;;;4.75;3.60;;;;;;;16.28;56.45;96833.50;5013016;28;20073;-32
2022/12/24 05:07:57;;;;;;;5.72;4.03;;;;;;;16.26;56.41;96830.47;5021132;28;20029;-32
2022/12/24 05:10:23;;;;;;;6.65;4.00;;;;;;;16.22;56.63;96832.56;5018405;28;20033;-32
2022/12/24 05:12:48;;;;;;;6.85;4.70;;;;;;;16.27;56.34;96838.22;5013223;28;20026;-32
2022/12/24 05:15:14;;;;;;;7.90;4.30;;;;;;;16.27;56.27;96835.50;5013108;28;20022;-32
2022/12/24 05:17:39;;;;;;;8.35;4.72;;;;;;;16.24;56.54;96828.19;5013251;28;20076;-32
2022/12/24 05:20:07;;;;;;;7.60;5.03;;;;;;;16.29;56.44;96818.63;5013275;28;20026;-32
2022/12/24 05:28:00;;;;;;;9.32;5.25;;;;;;;16.24;56.58;96827.41;5013441;28;20088;-32
2022/12/24 05:30:25;;;;;;;7.80;4.38;;;;;;;16.22;56.87;96833.34;5008043;28;20030;-32
2022/12/24 05:33:00;;;;;;;8.43;4.88;;;;;;;16.24;56.87;96832.88;4993894;28;20459;-32
2022/12/24 05:35:25;;;;;;;7.88;5.10;;;;;;;16.31;56.46;96827.13;4998132;28;20054;-32
2022/12/24 05:37:51;;;;;;;8.35;5.05;;;;;;;16.30;56.53;96836.56;5013402;28;20084;-32
2022/12/24 05:40:17;;;;;;;7.85;5.05;;;;;;;16.26;56.70;96838.69;5013152;28;20022;-32
2022/12/24 05:42:42;;;;;;;6.40;4.55;;;;;;;16.17;57.04;96848.41;5013399;28;20022;-32
2022/12/24 05:45:08;;;;;;;7.47;5.18;;;;;;;16.19;57.10;96852.66;5013069;28;20378;-32
2022/12/24 05:47:34;;;;;;;8.68;4.82;;;;;;;16.26;56.89;96841.41;5013039;28;20029;-32
2022/12/24 05:49:59;;;;;;;7.63;4.85;;;;;;;16.31;56.54;96851.78;5013299;28;20017;-32
2022/12/24 05:52:25;;;;;;;6.72;4.68;;;;;;;16.20;56.93;96843.22;5013006;28;20067;-32
2022/12/24 05:54:50;;;;;;;9.95;4.93;;;;;;;16.21;57.10;96831.81;5013279;28;20018;-32
2022/12/24 05:57:16;;;;;;;9.38;4.90;;;;;;;16.19;57.09;96826.06;5012705;28;20501;-32
2022/12/24 05:59:41;;;;;;;10.25;4.80;;;;;;;16.28;56.90;96820.59;5012866;28;20021;-32
2022/12/24 06:02:06;;;;;;;9.75;4.45;;;;;;;16.30;56.73;96820.13;5012953;28;20026;-32
2022/12/24 06:04:32;;;;;;;6.75;4.10;;;;;;;16.24;56.96;96830.16;5012957;28;20037;-32
2022/12/24 06:06:57;;;;;;;10.30;4.40;;;;;;;16.32;56.54;96832.13;5011709;28;20026;-32
2022/12/24 06:09:23;;;;;;;6.22;4.22;;;;;;;16.30;56.53;96839.31;5012280;28;20026;-32
2022/12/24 06:11:49;;;;;;;8.85;4.40;;;;;;;16.25;56.71;96837.91;5012936;28;20049;-32
2022/12/24 06:14:14;;;;;;;8.52;4.32;;;;;;;16.24;56.85;96824.69;4984679;28;20053;-32
2022/12/24 06:16:41;;;;;;;7.60;4.43;;;;;;;16.26;56.70;96833.19;5015927;28;20030;-32
2022/12/24 06:19:07;;;;;;;7.55;4.35;;;;;;;16.21;56.80;96828.31;5016393;28;20037;-32
2022/12/24 06:21:32;;;;;;;6.95;4.38;;;;;;;16.19;56.84;96831.53;5016688;28;20030;-32
2022/12/24 06:23:59;;;;;;;6.47;4.35;;;;;;;16.18;56.84;96838.22;5016027;28;20026;-32
2022/12/24 06:26:24;;;;;;;6.90;3.78;;;;;;;16.24;56.94;96825.44;5003400;28;20490;-32
2022/12/24 06:28:50;;;;;;;5.95;3.53;;;;;;;16.24;56.51;96832.88;5015693;28;20038;-32
2022/12/24 06:31:19;;;;;;;5.78;3.75;;;;;;;16.11;56.87;96835.75;5016347;28;20505;-32
2022/12/24 06:33:45;;;;;;;8.02;3.80;;;;;;;16.22;56.71;96847.03;4998645;28;20108;-32
2022/12/24 06:36:22;;;;;;;6.18;3.67;;;;;;;16.18;56.70;96846.44;5015888;28;20493;-32
2022/12/24 06:38:49;;;;;;;5.70;3.78;;;;;;;16.21;56.65;96837.28;5016094;28;20033;-32
2022/12/24 06:41:15;;;;;;;9.95;4.90;;;;;;;16.25;56.54;96840.66;5015802;28;20025;-32
2022/12/24 06:43:46;;;;;;;9.02;3.90;;;;;;;16.14;56.74;96838.34;5015941;28;20025;-32
2022/12/24 06:46:11;;;;;;;5.43;3.95;;;;;;;16.17;56.74;96831.97;5015960;28;20076;-32
2022/12/24 06:48:36;;;;;;;11.35;4.40;;;;;;;16.22;56.66;96821.63;5015563;28;20025;-32
2022/12/24 06:51:03;;;;;;;9.50;4.82;;;;;;;16.25;56.39;96820.72;5015515;28;20032;-32
2022/12/24 06:53:29;;;;;;;8.52;4.38;;;;;;;16.17;56.71;96818.28;5015622;28;20084;-32
2022/12/24 06:56:09;;;;;;;8.38;4.72;;;;;;;16.21;56.81;96815.41;5015931;28;20076;-32
2022/12/24 06:58:35;;;;;;;11.40;4.40;;;;;;;16.23;56.56;96828.63;5012574;28;20113;-32
2022/12/24 07:01:02;;;;;;;9.27;4.65;;;;;;;16.23;56.58;96828.63;5005968;28;20045;-32
2022/12/24 07:03:28;;;;;;;8.52;4.38;;;;;;;16.10;56.95;96826.78;5015360;28;20506;-31
2022/12/24 07:05:54;;;;;;;6.80;4.07;;;;;;;16.16;56.82;96832.44;5015492;28;20383;-31
2022/12/24 07:08:19;;;;;;;8.25;4.80;;;;;;;16.25;56.70;96840.66;5015797;28;20087;-31
2022/12/24 07:10:45;;;;;;;10.50;4.45;;;;;;;16.26;56.76;96838.69;5015403;28;20022;-31
2022/12/24 07:13:10;;;;;;;12.15;5.10;;;;;;;16.26;56.81;96835.94;5004941;28;20026;-31
2022/12/24 07:15:35;;;;;;;8.43;4.22;;;;;;;16.24;56.85;96846.56;5012809;28;20026;-31
2022/12/24 07:18:03;;;;;;;9.25;4.13;;;;;;;16.20;57.05;96838.50;5018013;28;20022;-31
2022/12/24 07:33:55;;;;;;;8.60;4.47;;;;;;;16.21;57.14;96842.00;5003155;28;20092;-31
2022/12/24 07:36:21;;;;;;;8.98;4.50;;;;;;;16.16;57.27;96844.13;5014108;28;20046;-31
2022/12/24 07:38:47;;;;;;;8.13;4.15;;;;;;;16.15;57.26;96850.06;5014908;28;20050;-31
2022/12/24 07:41:14;;;;;;;8.20;4.68;;;;;;;16.17;57.49;96853.13;5014688;28;20030;-31
2022/12/24 07:43:40;;;;;;;11.27;4.15;;;;;;;16.08;57.63;96851.09;4997226;28;20432;-31
2022/12/24 07:46:05;;;;;;;8.43;4.28;;;;;;;16.14;57.44;96851.28;5014650;28;20034;-31
2022/12/24 07:48:31;;;;;;;9.05;4.30;;;;;;;16.14;57.41;96860.25;5014515;28;20399;-31
2022/12/24 07:50:58;;;;;;;9.18;4.25;;;;;;;16.15;57.60;96858.28;5014646;28;20030;-31
2022/12/24 07:53:26;;;;;;;10.75;4.40;;;;;;;16.22;57.40;96862.69;5014810;28;20040;-31
2022/12/24 07:55:51;;;;;;;10.73;5.05;;;;;;;16.15;57.67;96867.25;5014468;28;20045;-31
2022/12/24 07:58:17;;;;;;;10.75;4.50;;;;;;;16.25;57.46;96867.25;5014592;28;20119;-31
2022/12/24 08:00:42;;;;;;;13.52;4.97;;;;;;;16.20;57.51;96859.63;5014212;28;20506;-31
2022/12/24 08:03:16;;;;;;;8.25;4.03;;;;;;;16.11;57.76;96847.47;5014345;28;20410;-31
2022/12/24 08:05:41;;;;;;;11.00;4.82;;;;;;;16.11;57.81;96861.13;4996724;28;20101;-31
2022/12/24 08:08:07;;;;;;;9.32;4.55;;;;;;;16.29;57.51;96878.81;5014227;28;20156;-31
2022/12/24 08:10:32;;;;;;;8.93;4.15;;;;;;;16.24;57.34;96877.44;5014286;28;20022;-31
2022/12/24 08:12:58;;;;;;;7.70;3.97;;;;;;;16.15;57.88;96888.38;5014151;28;20072;-32
2022/12/24 08:15:23;;;;;;;9.65;4.53;;;;;;;16.24;57.65;96884.88;5009399;28;20037;-32
2022/12/24 08:17:49;;;;;;;8.40;3.85;;;;;;;16.20;57.76;96878.78;5012079;28;20025;-32
2022/12/24 08:20:16;;;;;;;11.75;4.03;;;;;;;16.22;57.79;96887.31;5012213;28;20029;-32
2022/12/24 08:22:42;;;;;;;8.10;3.58;;;;;;;16.22;57.64;96882.59;5011928;28;20022;-32
2022/12/24 08:25:09;;;;;;;10.93;4.15;;;;;;;16.19;57.99;96885.50;5012025;28;20033;-32
2022/12/24 08:27:35;;;;;;;8.57;4.22;;;;;;;16.20;58.06;96887.00;5011565;28;20025;-32
2022/12/24 08:30:00;;;;;;;10.27;4.15;;;;;;;16.20;57.91;96906.91;4993880;28;20478;-32
2022/12/24 08:32:26;;;;;;;7.90;3.72;;;;;;;16.19;58.05;96907.38;4994052;28;20038;-32
2022/12/24 08:34:52;;;;;;;9.63;4.20;;;;;;;16.22;58.01;96911.94;5005892;28;20264;-32
2022/12/24 08:37:17;;;;;;;10.73;4.95;;;;;;;16.23;57.92;96919.69;5011577;28;20556;-32
2022/12/24 08:39:43;;;;;;;10.20;4.15;;;;;;;16.24;57.97;96915.75;5011514;28;20034;-32
2022/12/24 08:42:08;;;;;;;9.18;4.15;;;;;;;16.25;58.01;96908.31;4993972;28;20105;-32
2022/12/24 08:44:37;;;;;;;8.90;4.40;;;;;;;16.28;57.95;96913.66;5011364;28;20028;-32
2022/12/24 08:47:02;;;;;;;9.05;4.00;;;;;;;16.21;58.12;96905.69;5011793;28;20022;-32
2022/12/24 08:49:28;;;;;;;9.27;3.92;;;;;;;16.17;58.40;96899.63;5011531;28;20117;-32
2022/12/24 08:51:53;;;;;;;9.30;4.65;;;;;;;16.16;58.40;96904.34;5011349;28;20022;-32
2022/12/24 08:54:19;;;;;;;8.18;3.97;;;;;;;16.21;58.24;96910.41;5011456;28;20042;-32
2022/12/24 08:56:44;;;;;;;8.32;3.72;;;;;;;16.29;58.14;96908.94;5011544;28;20387;-32
2022/12/24 08:59:11;;;;;;;9.35;4.07;;;;;;;16.23;58.07;96908.00;5011659;28;20026;-32
2022/12/24 09:01:37;;;;;;;10.65;3.95;;;;;;;16.24;58.22;96910.28;5011524;28;20030;-32
2022/12/24 09:04:03;;;;;;;8.27;4.10;;;;;;;16.22;58.17;96907.22;5011264;28;20549;-32
2022/12/24 09:06:31;;;;;;;9.05;3.78;;;;;;;16.21;58.50;96905.69;5011556;28;20030;-32
2022/12/24 09:08:56;;;;;;;10.60;4.15;;;;;;;16.19;58.61;96921.84;4993836;28;20364;-32
2022/12/24 09:11:37;;;;;;;12.25;4.22;;;;;;;16.18;58.59;96925.78;5011487;28;20084;-32
2022/12/24 09:14:03;;;;;;;11.50;4.63;;;;;;;16.22;58.59;96922.88;5011195;28;20022;-32
2022/12/24 09:16:29;;;;;;;6.82;3.70;;;;;;;16.24;58.38;96928.66;5013628;28;20022;-32
2022/12/24 09:18:56;;;;;;;11.40;4.28;;;;;;;16.27;58.16;96936.75;5011273;28;20057;-32
2022/12/24 09:21:22;;;;;;;6.65;3.47;;;;;;;16.23;58.54;96936.13;5011173;28;20504;-32
2022/12/24 09:23:47;;;;;;;8.20;3.65;;;;;;;16.25;58.54;96927.47;5011258;28;20026;-32
2022/12/24 09:26:17;;;;;;;6.95;3.33;;;;;;;16.19;58.56;96932.78;4995681;28;20026;-32
2022/12/24 09:28:43;;;;;;;9.15;4.38;;;;;;;16.12;58.91;96928.34;5013147;28;20030;-32
2022/12/24 09:31:11;;;;;;;8.10;4.10;;;;;;;16.23;58.63;96935.34;5013318;28;20483;-32
2022/12/24 09:33:38;;;;;;;7.25;3.90;;;;;;;16.26;58.63;96939.94;5013569;28;20072;-32
2022/12/24 09:36:05;;;;;;;11.27;4.50;;;;;;;16.14;59.03;96944.31;5013233;28;20072;-32
2022/12/24 09:38:31;;;;;;;10.45;5.45;;;;;;;16.25;58.75;96946.63;5013368;28;20049;-32
2022/12/24 09:40:58;;;;;;;13.00;5.15;;;;;;;16.17;58.75;96970.78;5013124;28;20450;-32
2022/12/24 09:43:29;;;;;;;9.32;4.90;;;;;;;16.21;58.75;96974.13;5013205;28;20546;-32
2022/12/24 09:46:21;;;;;;;10.27;5.63;;;;;;;16.29;58.60;96982.84;5013270;28;20017;-32
2022/12/24 09:48:54;;;;;;;8.00;4.47;;;;;;;16.26;58.74;96981.75;5015064;28;20505;-32
2022/12/24 09:51:32;;;;;;;10.10;5.00;;;;;;;16.23;58.99;96979.16;5016912;28;20113;-32
2022/12/24 09:54:06;;;;;;;7.80;4.55;;;;;;;16.17;58.89;96977.00;5016825;28;20044;-32
2022/12/24 09:56:41;;;;;;;9.23;4.60;;;;;;;16.25;58.81;96984.94;4999520;28;20030;-32
2022/12/24 09:59:39;;;;;;;11.90;4.78;;;;;;;16.26;58.82;96983.72;5016648;28;20022;-32
2022/12/24 10:02:11;;;;;;;7.63;4.43;;;;;;;16.24;58.99;96983.41;5016442;28;20026;-32
2022/12/24 10:04:36;;;;;;;12.45;5.78;;;;;;;15.74;61.87;96977.06;5016706;28;20056;-32
2022/12/24 10:07:29;;;;;;;12.00;6.78;;;;;;;15.51;63.95;96977.50;5016537;28;20026;-31
